地図

経路データ

SID SEASON NUMBER BASIN SUBBASIN NAME ISO_TIME NATURE LAT LON WMO_WIND WMO_PRES WMO_AGENCY TRACK_TYPE DIST2LAND LANDFALL IFLAG USA_AGENCY USA_ATCF_ID USA_LAT USA_LON USA_RECORD USA_STATUS USA_WIND USA_PRES USA_SSHS USA_R34_NE USA_R34_SE USA_R34_SW USA_R34_NW USA_R50_NE USA_R50_SE USA_R50_SW USA_R50_NW USA_R64_NE USA_R64_SE USA_R64_SW USA_R64_NW USA_POCI USA_ROCI USA_RMW USA_EYE TOKYO_LAT TOKYO_LON TOKYO_GRADE TOKYO_WIND TOKYO_PRES TOKYO_R50_DIR TOKYO_R50_LONG TOKYO_R50_SHORT TOKYO_R30_DIR TOKYO_R30_LONG TOKYO_R30_SHORT TOKYO_LAND CMA_LAT CMA_LON CMA_CAT CMA_WIND CMA_PRES HKO_LAT HKO_LON HKO_CAT HKO_WIND HKO_PRES NEWDELHI_LAT NEWDELHI_LON NEWDELHI_GRADE NEWDELHI_WIND NEWDELHI_PRES NEWDELHI_CI NEWDELHI_DP NEWDELHI_POCI REUNION_LAT REUNION_LON REUNION_TYPE REUNION_WIND REUNION_PRES REUNION_TNUM REUNION_CI REUNION_RMW REUNION_R34_NE REUNION_R34_SE REUNION_R34_SW REUNION_R34_NW REUNION_R50_NE REUNION_R50_SE REUNION_R50_SW REUNION_R50_NW REUNION_R64_NE REUNION_R64_SE REUNION_R64_SW REUNION_R64_NW BOM_LAT BOM_LON BOM_TYPE BOM_WIND BOM_PRES BOM_TNUM BOM_CI BOM_RMW BOM_R34_NE BOM_R34_SE BOM_R34_SW BOM_R34_NW BOM_R50_NE BOM_R50_SE BOM_R50_SW BOM_R50_NW BOM_R64_NE BOM_R64_SE BOM_R64_SW BOM_R64_NW BOM_ROCI BOM_POCI BOM_EYE BOM_POS_METHOD BOM_PRES_METHOD NADI_LAT NADI_LON NADI_CAT NADI_WIND NADI_PRES WELLINGTON_LAT WELLINGTON_LON WELLINGTON_WIND WELLINGTON_PRES DS824_LAT DS824_LON DS824_STAGE DS824_WIND DS824_PRES TD9636_LAT TD9636_LON TD9636_STAGE TD9636_WIND TD9636_PRES TD9635_LAT TD9635_LON TD9635_WIND TD9635_PRES TD9635_ROCI NEUMANN_LAT NEUMANN_LON NEUMANN_CLASS NEUMANN_WIND NEUMANN_PRES MLC_LAT MLC_LON MLC_CLASS MLC_WIND MLC_PRES USA_GUST BOM_GUST BOM_GUST_PER REUNION_GUST REUNION_GUST_PER USA_SEAHGT USA_SEARAD_NE USA_SEARAD_SE USA_SEARAD_SW USA_SEARAD_NW STORM_SPEED STORM_DIR
1949256N20088 1949 76 NI BB NOT_NAMED 1949-09-12 18:00:00 TS 20.1000 87.6000 main 91 68 O________O____ jtwc_io IO091949 20.1000 87.6000 -1 20.1000 87.6000 TC 3 291
1949256N20088 1949 76 NI BB NOT_NAMED 1949-09-12 21:00:00 TS 20.1600 87.4325 main 68 61 P________P____ IO091949 20.1600 87.4325 -1 20.1600 87.4325 TC 3 290
1949256N20088 1949 76 NI BB NOT_NAMED 1949-09-13 00:00:00 TS 20.2000 87.3000 main 61 53 O________O____ jtwc_io IO091949 20.2000 87.3000 -1 20.2000 87.3000 TC 25 2 284
1949256N20088 1949 76 NI BB NOT_NAMED 1949-09-13 03:00:00 TS 20.2066 87.2244 main 53 53 P________PO___ IO091949 20.2075 87.2275 -1 20.2075 87.2275 TC 25 20.2000 87.2000 1 1 271
1949256N20088 1949 76 NI BB NOT_NAMED 1949-09-13 06:00:00 TS 20.2020 87.1888 main 53 53 O________OP___ jtwc_io IO091949 20.2000 87.2000 -1 20.2000 87.2000 TC 25 20.2099 87.1440 1 1 268
1949256N20088 1949 76 NI BB NOT_NAMED 1949-09-13 09:00:00 TS 20.2043 87.1701 main 53 53 P________PP___ IO091949 20.2000 87.1925 -1 20.2000 87.1925 TC 25 20.2159 87.1104 1 0 0
1949256N20088 1949 76 NI BB NOT_NAMED 1949-09-13 12:00:00 TS 20.2046 87.1739 main 53 53 O________OP___ jtwc_io IO091949 20.2000 87.2000 -1 20.2000 87.2000 TC 25 20.2139 87.1216 1 0 96
1949256N20088 1949 76 NI BB NOT_NAMED 1949-09-13 15:00:00 TS 20.2000 87.2000 main 53 53 P________PO___ IO091949 20.2000 87.2000 -1 20.2000 87.2000 TC 25 20.2000 87.2000 1 1 101
1949256N20088 1949 76 NI BB NOT_NAMED 1949-09-13 18:00:00 TS 20.1914 87.2485 main 53 53 O________OP___ jtwc_io IO091949 20.2000 87.2000 -1 20.2000 87.2000 TC 25 20.1741 87.3456 1 1 102
1949256N20088 1949 76 NI BB NOT_NAMED 1949-09-13 21:00:00 TS 20.1790 87.3095 main 61 61 P________PP___ IO091949 20.1925 87.2300 -1 20.1925 87.2300 TC 25 20.1521 87.4687 1 0 100
1949256N20088 1949 76 NI BB NOT_NAMED 1949-09-14 00:00:00 TS 20.1847 87.2858 main 61 53 O________OP___ jtwc_io IO091949 20.2000 87.2000 -1 20.2000 87.2000 TC 25 20.1541 87.4575 1 1 287
1949256N20088 1949 76 NI BB NOT_NAMED 1949-09-14 03:00:00 TS 20.2176 87.1764 main 53 0 P________PO___ IO091949 20.2263 87.1646 -1 20.2263 87.1646 TC 25 20.2000 87.2000 1 6 282
1949256N20088 1949 76 NI BB NOT_NAMED 1949-09-14 06:00:00 TS 20.2995 86.7063 main 0 0 O________OP___ jtwc_io IO091949 20.3000 86.8000 -1 20.3000 86.8000 TC 25 20.2985 86.5188 1 14 279
1949256N20088 1949 76 NI BB NOT_NAMED 1949-09-14 09:00:00 TS 20.4322 85.7354 main 0 0 P________PP___ IO091949 20.4292 85.8052 -1 20.4292 85.8052 TC 25 20.4382 85.5958 1 20 279
1949256N20088 1949 76 NI BB NOT_NAMED 1949-09-14 12:00:00 TS 20.6027 84.5916 main 0 0 O________OP___ jtwc_io IO091949 20.6000 84.6000 -1 20.6000 84.6000 TC 25 20.6081 84.5747 1 20 280
1949256N20088 1949 76 NI BB NOT_NAMED 1949-09-14 15:00:00 TS 20.7896 83.6266 main 0 0 P________PO___ IO091949 20.7845 83.6399 -1 20.7845 83.6399 TC 25 20.8000 83.6000 1 17 283
1949256N20088 1949 76 NI BB NOT_NAMED 1949-09-14 18:00:00 TS 21.0023 82.7979 main 0 0 O________OP___ jtwc_io IO091949 21.0000 82.8000 -1 21.0000 82.8000 TC 25 21.0068 82.7936 1 16 287
1949256N20088 1949 76 NI BB NOT_NAMED 1949-09-14 21:00:00 TS 21.2448 82.0297 main 0 0 P________PP___ IO091949 21.2499 82.0102 -1 21.2499 82.0102 TC 25 21.2345 82.0688 1 14 291
1949256N20088 1949 76 NI BB NOT_NAMED 1949-09-15 00:00:00 TS 21.4900 81.4198 main 0 0 O________OP___ jtwc_io IO091949 21.5000 81.4000 -1 21.5000 81.4000 TC 25 21.4699 81.4594 1 11 296
1949256N20088 1949 76 NI BB NOT_NAMED 1949-09-15 03:00:00 TS 21.7047 81.0065 main 0 0 P________PO___ IO091949 21.7071 81.0097 -1 21.7071 81.0097 TC 25 21.7000 81.0000 1 7 305
1949256N20088 1949 76 NI BB NOT_NAMED 1949-09-15 06:00:00 TS 21.9045 80.7783 main 0 0 O________OP___ jtwc_io IO091949 21.9000 80.8000 -1 21.9000 80.8000 TC 25 21.9136 80.7350 1 5 321
1949256N20088 1949 76 NI BB NOT_NAMED 1949-09-15 09:00:00 TS 22.1068 80.6560 main 0 0 P________PP___ IO091949 22.0999 80.6773 -1 22.0999 80.6773 TC 25 22.1205 80.6134 1 4 336
1949256N20088 1949 76 NI BB NOT_NAMED 1949-09-15 12:00:00 TS 22.3058 80.5867 main 0 0 O________OP___ jtwc_io IO091949 22.3000 80.6000 -1 22.3000 80.6000 TC 25 22.3173 80.5602 1 4 337
1949256N20088 1949 76 NI BB NOT_NAMED 1949-09-15 15:00:00 TS 22.5050 80.4767 main 0 0 P________PO___ IO091949 22.5075 80.4650 -1 22.5075 80.4650 TC 25 22.5000 80.5000 1 5 326
1949256N20088 1949 76 NI BB NOT_NAMED 1949-09-15 18:00:00 TS 22.6895 80.3058 main 0 0 O________OP___ jtwc_io IO091949 22.7000 80.3000 -1 22.7000 80.3000 TC 25 22.6685 80.3175 1 5 316
1949256N20088 1949 76 NI BB NOT_NAMED 1949-09-15 21:00:00 TS 22.8509 80.1100 main 0 0 P________PP___ IO091949 22.8650 80.1075 -1 22.8650 80.1075 TC 25 22.8226 80.1150 1 5 309
1949256N20088 1949 76 NI BB NOT_NAMED 1949-09-16 00:00:00 TS 22.9885 79.9017 main 0 0 O________OP___ jtwc_io IO091949 23.0000 79.9000 -1 23.0000 79.9000 TC 25 22.9654 79.9050 1 5 303
1949256N20088 1949 76 NI BB NOT_NAMED 1949-09-16 03:00:00 TS 23.1000 79.6950 main 0 0 P________PO___ IO091949 23.1000 79.6924 -1 23.1000 79.6924 TC 25 23.1000 79.7000 1 4 301
1949256N20088 1949 76 NI BB NOT_NAMED 1949-09-16 06:00:00 TS 23.2107 79.5045 main 0 0 O________OP___ jtwc_io IO091949 23.2000 79.5000 -1 23.2000 79.5000 TC 25 23.2321 79.5136 1 4 308
1949256N20088 1949 76 NI BB NOT_NAMED 1949-09-16 09:00:00 TS 23.3524 79.3399 main 0 0 P________PP___ IO091949 23.3500 79.3425 -1 23.3500 79.3425 TC 25 23.3574 79.3348 1 4 314
1949256N20088 1949 76 NI BB NOT_NAMED 1949-09-16 12:00:00 TS 23.4930 79.1879 main 0 0 O________OP___ jtwc_io IO091949 23.5000 79.2000 -1 23.5000 79.2000 TC 25 23.4790 79.1636 1 4 311
1949256N20088 1949 76 NI BB NOT_NAMED 1949-09-16 15:00:00 TS 23.6000 79.0333 main 0 0 P________PO___ IO091949 23.6000 79.0499 -1 23.6000 79.0499 TC 25 23.6000 79.0000 1 4 307
1949256N20088 1949 76 NI BB NOT_NAMED 1949-09-16 18:00:00 TS 23.7042 78.8809 main 0 0 O________OP___ jtwc_io IO091949 23.7000 78.9000 -1 23.7000 78.9000 TC 25 23.7127 78.8426 1 4 311
1949256N20088 1949 76 NI BB NOT_NAMED 1949-09-16 21:00:00 TS 23.8425 78.7307 main 0 0 P________PP___ IO091949 23.8500 78.7500 -1 23.8500 78.7500 TC 25 23.8274 78.6922 1 4 316
1949256N20088 1949 76 NI BB NOT_NAMED 1949-09-17 00:00:00 TS 23.9845 78.5819 main 0 0 O________OP___ jtwc_io IO091949 24.0000 78.6000 -1 24.0000 78.6000 TC 25 23.9534 78.5457 1 4 313
1949256N20088 1949 76 NI BB NOT_NAMED 1949-09-17 03:00:00 TS 24.0950 78.4333 main 0 0 P________PO___ IO091949 24.0925 78.4499 -1 24.0925 78.4499 TC 25 24.1000 78.4000 1 4 311
1949256N20088 1949 76 NI BB NOT_NAMED 1949-09-17 06:00:00 TS 24.2221 78.2793 main 0 0 O________OP___ jtwc_io IO091949 24.2000 78.3000 -1 24.2000 78.3000 TC 25 24.2663 78.2379 1 4 317
1949256N20088 1949 76 NI BB NOT_NAMED 1949-09-17 09:00:00 TS 24.3983 78.1258 main 0 0 P________PP___ IO091949 24.3700 78.1500 -1 24.3700 78.1500 TC 25 24.4551 78.0776 1 5 325
1949256N20088 1949 76 NI AS NOT_NAMED 1949-09-17 12:00:00 TS 24.6221 77.9762 main 0 0 O________OP___ jtwc_io IO091949 24.6000 78.0000 -1 24.6000 78.0000 TC 25 24.6663 77.9285 1 6 331
1949256N20088 1949 76 NI AS NOT_NAMED 1949-09-17 15:00:00 TS 24.8950 77.8234 main 0 0 P________PO___ IO091949 24.8925 77.8351 -1 24.8925 77.8351 TC 25 24.9000 77.8000 1 6 337
1949256N20088 1949 76 NI AS NOT_NAMED 1949-09-17 18:00:00 TS 25.1844 77.7077 main 0 0 O________OP___ jtwc_io IO091949 25.2000 77.7000 -1 25.2000 77.7000 TC 25 25.1532 77.7232 1 6 344
1949256N20088 1949 76 NI AS NOT_NAMED 1949-09-17 21:00:00 TS 25.4424 77.6496 main 0 0 P________PP___ IO091949 25.4500 77.6423 -1 25.4500 77.6423 TC 25 25.4272 77.6642 1 5 349
1949256N20088 1949 76 NI AS NOT_NAMED 1949-09-18 00:00:00 TS 25.7042 77.5994 main 0 0 O________OP___ jtwc_io IO091949 25.7000 77.6000 -1 25.7000 77.6000 TC 25 25.7126 77.5981 1 6 348
1949256N20088 1949 76 NI AS NOT_NAMED 1949-09-18 03:00:00 TS 26.0000 77.5150 main 0 0 P________PO___ IO091949 26.0000 77.5224 -1 26.0000 77.5224 TC 25 26.0000 77.5000 1 6 342
1949256N20088 1949 76 NI AS NOT_NAMED 1949-09-18 06:00:00 TS 26.2983 77.3895 main 0 0 O________OP___ jtwc_io IO091949 26.3000 77.4000 -1 26.3000 77.4000 TC 25 26.2950 77.3684 1 6 335
1949256N20088 1949 76 NI AS NOT_NAMED 1949-09-18 09:00:00 TS 26.5673 77.2191 main 0 0 P________PP___ IO091949 26.5574 77.2299 -1 26.5574 77.2299 TC 25 26.5869 77.1974 1 6 326
1949256N20088 1949 76 NI AS NOT_NAMED 1949-09-18 12:00:00 TS 26.8201 76.9926 main 0 0 O________OP___ jtwc_io IO091949 26.8000 77.0000 -1 26.8000 77.0000 TC 25 26.8604 76.9777 1 7 319
1949256N20088 1949 76 NI AS NOT_NAMED 1949-09-18 15:00:00 TS 27.0766 76.7200 main 0 0 P________PO___ IO091949 27.0649 76.7300 -1 27.0649 76.7300 TC 25 27.1000 76.7000 1 7 311
1949256N20088 1949 76 NI AS NOT_NAMED 1949-09-18 18:00:00 TS 27.2978 76.3837 main 0 0 O________OP___ jtwc_io IO091949 27.3000 76.4000 -1 27.3000 76.4000 TC 25 27.2946 76.3593 1 8 301
1949256N20088 1949 76 NI AS NOT_NAMED 1949-09-18 21:00:00 TS 27.4622 75.9949 main 0 0 P________PP___ IO091949 27.4703 76.0151 -1 27.4703 76.0151 TC 25 27.4515 75.9680 1 8 292
1949256N20088 1949 76 NI AS NOT_NAMED 1949-09-19 00:00:00 TS 27.5913 75.5714 main 0 0 O________OP___ jtwc_io IO091949 27.6000 75.6000 -1 27.6000 75.6000 TC 25 27.5826 75.5427 1 8 287
1949256N20088 1949 76 NI AS NOT_NAMED 1949-09-19 03:00:00 NR 27.7000 75.1000 main 0 __________O___ IO091949 -1 TC 27.7000 75.1000 1 9 285

IBTrACS Databaseについて

本データベースは、米国NOAAが公開する1842年以降の世界の熱帯低気圧のベストトラックデータアーカイブInternational Best Track Archive for Climate Stewardship (IBTrACS)を、ウェブで閲覧しやすい形式に変換したものです。

最終更新日:2021-10-08